Time;durP1;ratioP1;P1;durP2;ratioP2;P2;SDS_P1;SDS_P2;PMS_P1;PMS_P2;Temp;Humidity;BMP_temperature;BMP_pressure;BME280_temperature;BME280_humidity;BME280_pressure;Samples;Min_cycle;Max_cycle;Signal;HPM_P1;HPM_P2
2023/08/02 00:01:27;;;;;;;4.07;1.73;;;;;;;22.46;62.87;99396.25;5029691;28;20188;-62
2023/08/02 00:03:52;;;;;;;3.93;1.67;;;;;;;22.47;62.59;99402.84;5041888;28;20539;-62
2023/08/02 00:06:18;;;;;;;2.60;1.40;;;;;;;22.46;62.99;99386.78;5047298;28;20595;-62
2023/08/02 00:08:43;;;;;;;5.97;2.10;;;;;;;22.47;62.86;99374.06;5047903;28;20180;-62
2023/08/02 00:11:18;;;;;;;4.33;1.70;;;;;;;22.45;63.26;99354.34;5043254;28;20183;-62
2023/08/02 00:13:43;;;;;;;3.17;1.70;;;;;;;22.45;62.87;99345.72;5034953;28;20176;-61
2023/08/02 00:16:10;;;;;;;4.33;2.03;;;;;;;22.45;62.89;99342.03;5034556;28;21281;-62
2023/08/02 00:18:35;;;;;;;4.93;1.67;;;;;;;22.44;62.77;99346.13;5033808;28;20556;-62
2023/08/02 00:21:00;;;;;;;3.37;1.93;;;;;;;22.44;62.77;99337.50;5044428;28;20447;-62
2023/08/02 00:23:26;;;;;;;2.80;1.63;;;;;;;22.43;62.73;99330.91;5059355;28;20233;-62
2023/08/02 00:25:51;;;;;;;4.60;2.00;;;;;;;22.44;63.07;99328.88;5042273;28;20250;-62
2023/08/02 00:28:17;;;;;;;4.03;2.20;;;;;;;22.43;63.09;99333.78;5050430;28;20607;-61
2023/08/02 00:30:43;;;;;;;3.73;1.90;;;;;;;22.42;62.86;99326.41;5030740;28;20184;-62
2023/08/02 00:33:09;;;;;;;6.13;2.23;;;;;;;22.40;62.96;99331.78;5030207;28;20168;-61
2023/08/02 00:35:34;;;;;;;4.87;1.60;;;;;;;22.41;63.16;99335.47;5045301;28;20790;-61
2023/08/02 00:38:00;;;;;;;3.60;1.73;;;;;;;22.39;62.97;99324.41;5041017;28;20534;-61
2023/08/02 00:40:25;;;;;;;5.50;1.93;;;;;;;22.40;62.66;99331.78;5036489;28;20522;-61
2023/08/02 00:42:51;;;;;;;2.70;1.40;;;;;;;22.40;62.61;99333.84;5047149;28;20581;-62
2023/08/02 00:45:16;;;;;;;4.13;2.00;;;;;;;22.40;62.95;99339.59;5026643;28;20192;-61
2023/08/02 00:47:42;;;;;;;2.70;1.50;;;;;;;22.38;62.78;99342.91;5027944;28;20267;-61
2023/08/02 00:50:07;;;;;;;3.63;1.53;;;;;;;22.38;62.58;99331.38;5032490;28;20230;-61
2023/08/02 00:52:33;;;;;;;2.67;1.43;;;;;;;22.38;62.66;99331.38;5031789;28;20175;-62
2023/08/02 00:54:58;;;;;;;4.57;1.67;;;;;;;22.38;62.56;99325.63;5047973;28;20198;-62
2023/08/02 00:57:24;;;;;;;4.27;1.60;;;;;;;22.38;62.73;99330.59;5033893;28;20222;-62
2023/08/02 00:59:49;;;;;;;4.07;1.90;;;;;;;22.37;62.41;99335.53;5031094;28;20231;-61
2023/08/02 01:02:15;;;;;;;6.97;1.80;;;;;;;22.38;62.86;99321.97;5043011;28;20595;-61
2023/08/02 01:04:40;;;;;;;9.13;2.30;;;;;;;22.37;63.12;99324.00;5046518;28;20188;-62
2023/08/02 01:07:21;;;;;;;3.60;2.13;;;;;;;22.36;62.62;99328.16;5051899;28;20217;-62
2023/08/02 01:09:53;;;;;;;3.57;1.90;;;;;;;22.36;62.96;99328.16;5032960;28;20190;-62
2023/08/02 01:12:18;;;;;;;3.83;1.77;;;;;;;22.37;62.87;99315.38;5022039;28;20894;-61
2023/08/02 01:14:49;;;;;;;4.00;1.70;;;;;;;22.35;62.90;99320.75;5049542;28;20444;-62
2023/08/02 01:17:15;;;;;;;5.63;1.63;;;;;;;22.35;62.51;99311.31;5032634;28;20172;-61
2023/08/02 01:19:42;;;;;;;4.30;1.60;;;;;;;22.35;62.50;99315.00;5049102;28;20437;-62
2023/08/02 01:22:08;;;;;;;5.10;1.60;;;;;;;22.35;62.79;99308.44;5051984;28;20171;-62
2023/08/02 01:24:35;;;;;;;3.90;1.77;;;;;;;22.34;62.77;99296.13;5039892;28;20557;-62
2023/08/02 01:27:15;;;;;;;2.83;1.60;;;;;;;22.34;62.50;99296.13;5051771;28;20306;-62
2023/08/02 01:29:47;;;;;;;3.93;1.70;;;;;;;22.34;62.61;99281.75;5040195;28;20466;-62
2023/08/02 01:32:13;;;;;;;5.33;2.07;;;;;;;22.34;62.93;99278.06;5034927;28;20425;-62
2023/08/02 01:34:39;;;;;;;3.43;1.60;;;;;;;22.34;62.53;99278.88;5027805;28;20427;-62
2023/08/02 01:37:04;;;;;;;2.70;1.60;;;;;;;22.34;62.32;99269.41;5031567;28;20251;-62
2023/08/02 01:39:30;;;;;;;3.70;1.90;;;;;;;22.33;62.59;99268.59;5033963;28;20541;-61
2023/08/02 01:41:55;;;;;;;3.60;1.90;;;;;;;22.32;62.90;99264.09;5030267;28;20176;-62
2023/08/02 01:44:21;;;;;;;8.13;2.00;;;;;;;22.32;62.61;99258.34;5037948;28;20331;-61
2023/08/02 01:46:46;;;;;;;3.20;1.80;;;;;;;22.31;62.66;99253.84;5030646;28;20273;-62
2023/08/02 01:49:12;;;;;;;3.13;1.90;;;;;;;22.32;62.91;99255.47;5032657;28;20239;-62
2023/08/02 01:51:37;;;;;;;3.10;1.77;;;;;;;22.32;62.73;99254.69;5030220;28;20176;-61
2023/08/02 01:54:03;;;;;;;3.03;1.70;;;;;;;22.32;62.52;99252.59;5033485;28;20184;-62
2023/08/02 01:56:28;;;;;;;3.27;1.63;;;;;;;22.31;62.95;99250.97;5049741;28;20203;-61
2023/08/02 01:58:53;;;;;;;3.87;1.53;;;;;;;22.31;62.43;99239.47;5050065;28;20607;-62
2023/08/02 02:01:19;;;;;;;5.80;1.40;;;;;;;22.31;62.56;99239.47;5033114;28;20176;-61
2023/08/02 02:03:44;;;;;;;3.30;1.60;;;;;;;22.30;62.72;99226.34;5039849;28;20203;-61
2023/08/02 02:06:10;;;;;;;3.43;1.30;;;;;;;22.30;63.15;99229.22;5047351;28;20240;-62
2023/08/02 02:08:35;;;;;;;3.07;1.80;;;;;;;22.30;62.87;99226.34;5050344;28;20187;-61
2023/08/02 02:11:01;;;;;;;3.57;1.90;;;;;;;22.29;62.49;99224.72;5050125;28;20196;-62
2023/08/02 02:13:26;;;;;;;2.70;1.60;;;;;;;22.30;63.01;99226.34;5033934;28;20184;-61
2023/08/02 02:15:52;;;;;;;3.00;1.70;;;;;;;22.29;62.58;99216.09;5030889;28;20556;-62
2023/08/02 02:18:17;;;;;;;4.07;1.50;;;;;;;22.29;63.12;99227.59;5037712;28;20180;-61
2023/08/02 02:20:43;;;;;;;3.70;1.93;;;;;;;22.29;62.50;99218.97;5037986;28;20189;-62
2023/08/02 02:23:08;;;;;;;4.70;1.90;;;;;;;22.28;62.53;99211.56;5030588;28;20197;-61
2023/08/02 02:25:34;;;;;;;3.63;1.70;;;;;;;22.29;62.34;99213.22;5043446;28;20224;-62
2023/08/02 02:27:59;;;;;;;2.97;1.73;;;;;;;22.28;62.85;99214.44;5047904;28;20184;-62
2023/08/02 02:30:25;;;;;;;3.07;1.60;;;;;;;22.28;62.47;99199.25;5037756;28;20344;-62
2023/08/02 02:32:50;;;;;;;6.03;1.63;;;;;;;22.28;62.46;99193.50;5046843;28;20187;-61
2023/08/02 02:35:16;;;;;;;2.60;1.63;;;;;;;22.27;62.51;99198.44;5043443;28;20177;-61
2023/08/02 02:37:41;;;;;;;3.80;1.70;;;;;;;22.28;62.49;99196.38;5049734;28;20199;-61
2023/08/02 02:40:08;;;;;;;6.70;1.60;;;;;;;22.27;62.91;99191.91;5047440;28;20186;-62
2023/08/02 02:42:33;;;;;;;3.13;1.43;;;;;;;22.27;62.66;99192.69;5040775;28;20197;-62
2023/08/02 02:44:59;;;;;;;4.70;2.27;;;;;;;22.26;62.64;99202.56;5043172;28;20458;-62
2023/08/02 02:47:24;;;;;;;4.47;1.60;;;;;;;22.27;62.25;99198.44;5029060;28;20199;-62
2023/08/02 02:49:50;;;;;;;3.00;1.70;;;;;;;22.26;62.44;99198.88;5031953;28;20244;-62
2023/08/02 02:52:15;;;;;;;3.10;1.93;;;;;;;22.26;62.48;99185.31;5028576;28;20176;-61
2023/08/02 02:54:41;;;;;;;4.47;2.00;;;;;;;22.25;62.53;99189.44;5037804;28;20710;-62
2023/08/02 02:57:06;;;;;;;3.70;1.70;;;;;;;22.25;62.67;99189.44;5049347;28;20180;-62
2023/08/02 02:59:32;;;;;;;3.50;1.97;;;;;;;22.26;62.33;99178.75;5047536;28;20188;-61
2023/08/02 03:01:58;;;;;;;3.57;2.20;;;;;;;22.25;62.56;99180.00;5033320;28;20180;-62
2023/08/02 03:04:24;;;;;;;3.33;1.50;;;;;;;22.25;62.75;99168.50;5038739;28;20527;-62
2023/08/02 03:06:50;;;;;;;5.43;2.17;;;;;;;22.25;62.47;99165.63;5047088;28;20496;-61
2023/08/02 03:09:16;;;;;;;5.90;2.37;;;;;;;22.24;62.90;99166.88;5049087;28;20249;-62
2023/08/02 03:11:41;;;;;;;3.67;1.50;;;;;;;22.23;62.62;99163.16;5046066;28;20439;-62
2023/08/02 03:14:07;;;;;;;3.83;1.87;;;;;;;22.24;62.70;99161.13;5029223;28;20180;-62
2023/08/02 03:16:32;;;;;;;3.27;1.63;;;;;;;22.24;62.93;99161.13;5028598;28;20175;-62
2023/08/02 03:18:58;;;;;;;3.93;1.73;;;;;;;22.24;62.74;99158.25;5039449;28;20191;-62
2023/08/02 03:21:23;;;;;;;3.57;1.73;;;;;;;22.24;63.17;99164.81;5037014;28;20193;-62
2023/08/02 03:23:48;;;;;;;2.77;1.63;;;;;;;22.23;62.93;99151.66;5044493;28;20215;-62
2023/08/02 03:26:14;;;;;;;4.63;1.93;;;;;;;22.23;62.90;99151.66;5045353;28;20253;-62
2023/08/02 03:28:39;;;;;;;2.90;1.67;;;;;;;22.23;62.67;99151.66;5051320;28;20225;-61
2023/08/02 03:31:05;;;;;;;3.47;1.90;;;;;;;22.23;63.14;99140.16;5048731;28;20189;-62
2023/08/02 03:33:30;;;;;;;3.63;1.70;;;;;;;22.23;63.39;99134.41;5044653;28;20190;-62
2023/08/02 03:35:56;;;;;;;2.83;1.40;;;;;;;22.22;63.00;99144.28;5036707;28;20203;-62
2023/08/02 03:38:21;;;;;;;4.23;2.20;;;;;;;22.22;63.24;99138.53;5031587;28;20192;-62
2023/08/02 03:40:46;;;;;;;3.20;1.67;;;;;;;22.22;62.86;99132.78;5052219;28;20209;-62
2023/08/02 03:43:12;;;;;;;4.17;1.90;;;;;;;22.22;63.11;99138.53;5047754;28;20204;-62
2023/08/02 03:45:37;;;;;;;3.67;1.70;;;;;;;22.22;63.45;99132.78;5037721;28;20222;-62
2023/08/02 03:48:03;;;;;;;4.83;1.90;;;;;;;22.20;63.42;99120.94;5031730;28;20211;-62
2023/08/02 03:50:29;;;;;;;2.83;1.57;;;;;;;22.22;63.32;99127.03;5046749;28;20679;-62
2023/08/02 03:52:54;;;;;;;5.53;1.80;;;;;;;22.21;63.40;99116.78;5045261;28;20188;-62
2023/08/02 03:55:19;;;;;;;3.10;1.50;;;;;;;22.22;63.25;99114.75;5045233;28;20191;-62
2023/08/02 03:57:45;;;;;;;5.63;2.10;;;;;;;22.21;63.26;99108.16;5048069;28;20222;-62
2023/08/02 04:00:11;;;;;;;3.23;1.90;;;;;;;22.20;63.51;99100.81;5038886;28;20192;-61
2023/08/02 04:02:36;;;;;;;3.80;1.50;;;;;;;22.21;63.23;99095.84;5033310;28;20198;-62
2023/08/02 04:05:02;;;;;;;5.93;2.70;;;;;;;22.21;63.44;99075.72;5042934;28;20188;-61
2023/08/02 04:07:27;;;;;;;3.90;1.57;;;;;;;22.21;63.61;99084.34;5045621;28;20192;-62
2023/08/02 04:09:52;;;;;;;5.30;1.90;;;;;;;22.21;63.49;99067.91;5028847;28;20192;-62
2023/08/02 04:12:19;;;;;;;4.37;1.90;;;;;;;22.19;63.59;99064.69;5057871;28;20550;-62
2023/08/02 04:14:45;;;;;;;3.20;1.87;;;;;;;22.20;63.37;99071.22;5035088;28;20719;-62
2023/08/02 04:17:11;;;;;;;3.53;2.10;;;;;;;22.20;63.53;99065.47;5032948;28;20484;-61
2023/08/02 04:19:36;;;;;;;5.07;1.77;;;;;;;22.21;63.75;99062.16;5035299;28;20439;-62
2023/08/02 04:22:02;;;;;;;4.47;2.20;;;;;;;22.20;63.77;99057.66;5028550;28;20188;-62
2023/08/02 04:24:27;;;;;;;4.20;2.03;;;;;;;22.20;63.79;99051.94;5040301;28;20321;-61
2023/08/02 04:26:52;;;;;;;2.63;1.60;;;;;;;22.19;64.01;99037.97;5041492;28;20184;-62
2023/08/02 04:29:18;;;;;;;3.30;1.90;;;;;;;22.20;64.05;99028.09;5034729;28;20192;-62
2023/08/02 04:31:44;;;;;;;3.50;2.00;;;;;;;22.19;63.81;99032.22;5029829;28;20667;-62
2023/08/02 04:34:09;;;;;;;3.57;1.80;;;;;;;22.19;64.04;99026.47;5030445;28;20806;-62
2023/08/02 04:36:35;;;;;;;3.00;1.73;;;;;;;22.19;64.10;99018.69;5034546;28;20183;-62
2023/08/02 04:39:03;;;;;;;3.40;1.80;;;;;;;22.18;64.10;99008.41;5033764;28;20191;-62
2023/08/02 04:41:29;;;;;;;5.53;2.07;;;;;;;22.18;64.15;99011.28;5027588;28;20195;-62
2023/08/02 04:43:54;;;;;;;3.20;1.77;;;;;;;22.18;63.68;99017.03;5033886;28;20564;-62
2023/08/02 04:46:21;;;;;;;4.17;2.60;;;;;;;22.19;63.86;99024.44;5038394;28;20196;-62
2023/08/02 04:48:46;;;;;;;3.93;1.67;;;;;;;22.16;64.19;99019.53;5040807;28;20223;-62
2023/08/02 04:51:12;;;;;;;4.67;1.90;;;;;;;22.17;63.92;99012.53;5033496;28;20525;-62
2023/08/02 04:53:38;;;;;;;3.30;1.70;;;;;;;22.16;64.33;99007.22;5039320;28;20198;-62
2023/08/02 04:56:10;;;;;;;3.33;1.90;;;;;;;22.16;63.98;99001.47;5035216;28;20226;-61
2023/08/02 04:58:36;;;;;;;2.93;1.60;;;;;;;22.16;64.29;99008.03;5027759;28;20187;-62
2023/08/02 05:01:02;;;;;;;4.37;2.00;;;;;;;22.15;64.35;99003.53;5031058;28;20470;-62
2023/08/02 05:03:28;;;;;;;5.07;2.10;;;;;;;22.16;64.11;99004.34;5036990;28;20235;-62
2023/08/02 05:06:02;;;;;;;3.60;1.87;;;;;;;22.15;64.12;99003.53;5031717;28;20454;-61
2023/08/02 05:08:34;;;;;;;3.57;1.73;;;;;;;22.15;64.09;99003.53;5026581;28;20230;-62
2023/08/02 05:10:59;;;;;;;6.53;1.80;;;;;;;22.15;64.62;99009.28;5028389;28;20445;-62
2023/08/02 05:13:25;;;;;;;3.90;1.90;;;;;;;22.15;64.31;99000.66;5026621;28;21321;-62
2023/08/02 05:15:51;;;;;;;5.80;1.80;;;;;;;22.15;64.44;99009.28;5044607;28;20670;-62
2023/08/02 05:18:17;;;;;;;3.67;1.93;;;;;;;22.17;64.45;99003.13;5045268;28;20603;-62
2023/08/02 05:20:42;;;;;;;3.03;1.60;;;;;;;22.16;64.63;98990.78;5029794;28;20189;-61
2023/08/02 05:23:08;;;;;;;3.30;1.90;;;;;;;22.15;64.95;98988.34;5033088;28;20211;-62
2023/08/02 05:25:34;;;;;;;4.07;2.30;;;;;;;22.15;64.18;98982.59;5047434;28;20179;-62
2023/08/02 05:28:00;;;;;;;4.83;2.07;;;;;;;22.15;64.42;98977.69;5036795;28;20216;-62
2023/08/02 05:30:27;;;;;;;4.23;1.93;;;;;;;22.14;64.86;98970.31;5030898;28;20485;-62
2023/08/02 05:32:53;;;;;;;5.20;2.67;;;;;;;22.15;64.60;98976.84;5025066;28;20192;-62
2023/08/02 05:35:18;;;;;;;3.63;2.13;;;;;;;22.14;64.85;98967.44;5041156;28;20442;-62
2023/08/02 05:37:43;;;;;;;4.33;2.07;;;;;;;22.14;64.78;98963.72;5049602;28;20191;-62
2023/08/02 05:40:09;;;;;;;3.40;2.10;;;;;;;22.14;64.87;98958.81;5039032;28;20203;-62
2023/08/02 05:42:35;;;;;;;4.20;2.33;;;;;;;22.14;65.00;98958.81;5039955;28;20188;-62
2023/08/02 05:45:00;;;;;;;5.33;2.13;;;;;;;22.14;64.69;98940.72;5042213;28;20196;-61
2023/08/02 05:47:27;;;;;;;5.60;1.83;;;;;;;22.14;64.93;98947.31;5041644;28;20936;-62
2023/08/02 05:49:52;;;;;;;3.73;2.00;;;;;;;22.14;64.64;98950.19;5038608;28;20584;-62
2023/08/02 05:52:18;;;;;;;4.30;2.50;;;;;;;22.14;64.54;98941.56;5036379;28;20449;-62
2023/08/02 05:54:44;;;;;;;4.00;2.00;;;;;;;22.14;65.25;98940.72;5041985;28;20180;-62
2023/08/02 05:57:09;;;;;;;4.40;2.20;;;;;;;22.14;64.51;98932.09;5042952;28;20199;-62
2023/08/02 05:59:37;;;;;;;5.37;2.10;;;;;;;22.13;65.03;98925.53;5035418;28;20266;-61
2023/08/02 06:02:06;;;;;;;3.43;2.07;;;;;;;22.14;64.84;98934.97;5045824;28;20339;-62
2023/08/02 06:04:34;;;;;;;3.33;2.10;;;;;;;22.13;65.04;98934.16;5036135;28;20577;-62
2023/08/02 06:06:59;;;;;;;4.07;2.50;;;;;;;22.14;65.01;98923.47;5030295;28;20977;-62
2023/08/02 06:09:25;;;;;;;4.77;2.90;;;;;;;22.12;64.62;98918.16;5033555;28;20447;-61
2023/08/02 06:11:51;;;;;;;3.70;2.60;;;;;;;22.13;64.64;98916.91;5043107;28;20924;-62
2023/08/02 06:14:16;;;;;;;4.60;1.93;;;;;;;22.13;65.27;98916.13;5042832;28;20726;-62
2023/08/02 06:16:42;;;;;;;5.60;3.13;;;;;;;22.13;64.77;98904.63;5056265;28;20198;-61
2023/08/02 06:19:07;;;;;;;6.17;2.67;;;;;;;22.13;65.44;98910.38;5043269;28;20195;-62
2023/08/02 06:21:34;;;;;;;7.77;2.60;;;;;;;22.12;65.34;98909.53;5041320;28;20546;-62
2023/08/02 06:24:00;;;;;;;4.40;2.67;;;;;;;22.12;64.79;98906.66;5039574;28;20216;-61
2023/08/02 06:26:26;;;;;;;4.13;2.70;;;;;;;22.12;65.62;98903.78;5032051;28;21087;-62
2023/08/02 06:28:51;;;;;;;4.00;2.53;;;;;;;22.12;65.49;98891.50;5043563;28;20195;-61
2023/08/02 06:31:17;;;;;;;4.33;2.33;;;;;;;22.12;65.50;98892.28;5032510;28;20187;-63
2023/08/02 06:33:42;;;;;;;5.90;2.67;;;;;;;22.11;65.09;98876.31;5033727;28;20187;-62
2023/08/02 06:36:08;;;;;;;4.17;2.00;;;;;;;22.18;65.37;98884.78;5031218;28;20559;-63
2023/08/02 06:38:33;;;;;;;3.80;2.77;;;;;;;22.30;67.08;98883.34;5042486;28;20187;-62
2023/08/02 06:40:59;;;;;;;8.93;3.60;;;;;;;22.65;68.46;98880.59;5035665;28;20207;-62
2023/08/02 06:43:24;;;;;;;10.17;5.30;;;;;;;22.93;70.54;98882.03;5039722;28;20212;-62
2023/08/02 06:45:50;;;;;;;10.43;4.53;;;;;;;22.80;70.08;98887.66;5052713;28;20179;-63
2023/08/02 06:48:18;;;;;;;16.47;3.80;;;;;;;22.61;67.53;98879.84;5046359;28;20219;-62
2023/08/02 06:50:43;;;;;;;5.63;2.97;;;;;;;22.57;66.97;98875.44;5031427;28;20255;-61
2023/08/02 06:53:09;;;;;;;4.13;2.63;;;;;;;22.56;67.25;98868.03;5030434;28;21004;-61
2023/08/02 06:55:34;;;;;;;4.93;2.70;;;;;;;22.55;67.40;98870.13;5033691;28;20541;-61
2023/08/02 06:58:00;;;;;;;5.90;2.90;;;;;;;22.53;67.17;98866.06;5038843;28;20636;-62
2023/08/02 07:00:25;;;;;;;6.33;3.27;;;;;;;22.51;67.41;98842.66;5041653;28;20188;-62
2023/08/02 07:02:50;;;;;;;8.70;3.37;;;;;;;22.51;66.75;98846.34;5047253;28;20204;-62
2023/08/02 07:05:16;;;;;;;5.87;3.27;;;;;;;22.50;66.83;98844.75;5032685;28;20191;-63
2023/08/02 07:07:41;;;;;;;7.80;2.67;;;;;;;22.50;67.01;98833.25;5042910;28;20252;-64
2023/08/02 07:10:07;;;;;;;9.30;3.50;;;;;;;22.50;67.02;98832.41;5039056;28;20214;-61
2023/08/02 07:12:33;;;;;;;6.87;3.23;;;;;;;22.49;68.50;98825.88;5036664;28;20199;-63
2023/08/02 07:14:58;;;;;;;5.37;3.10;;;;;;;22.50;68.76;98823.78;5035440;28;20206;-63
2023/08/02 07:17:23;;;;;;;4.40;2.60;;;;;;;22.54;67.60;98822.47;5042749;28;20253;-62
2023/08/02 07:19:49;;;;;;;6.63;3.37;;;;;;;22.56;67.36;98825.69;5032743;28;20200;-62
2023/08/02 07:22:17;;;;;;;9.10;3.40;;;;;;;22.55;67.57;98812.59;5039241;28;20183;-61
2023/08/02 07:24:43;;;;;;;5.13;3.00;;;;;;;22.52;66.77;98810.59;5040797;28;20215;-62
2023/08/02 07:27:10;;;;;;;4.93;2.87;;;;;;;22.53;69.80;98797.81;5038895;28;20554;-61
2023/08/02 07:29:35;;;;;;;8.20;4.03;;;;;;;22.54;69.68;98799.47;5042666;28;20432;-61
2023/08/02 07:32:01;;;;;;;6.63;3.07;;;;;;;22.49;68.72;98791.34;5044779;28;20446;-61
2023/08/02 07:34:26;;;;;;;9.10;3.13;;;;;;;22.47;67.76;98775.78;5014830;28;20187;-62
2023/08/02 07:36:52;;;;;;;4.47;2.80;;;;;;;22.45;67.67;98786.91;5032367;28;20551;-61
2023/08/02 07:39:17;;;;;;;6.60;3.00;;;;;;;22.42;67.55;98774.19;5034518;28;20188;-62
2023/08/02 07:41:43;;;;;;;5.40;3.00;;;;;;;22.40;67.60;98773.84;5035152;28;20180;-61
2023/08/02 07:44:08;;;;;;;6.30;3.40;;;;;;;22.39;66.82;98774.28;5033398;28;20731;-61
2023/08/02 07:46:34;;;;;;;4.93;3.00;;;;;;;22.38;67.06;98772.66;5028606;28;20184;-61
2023/08/02 07:48:59;;;;;;;6.50;2.83;;;;;;;22.36;67.37;98770.22;5034228;28;20212;-61
2023/08/02 07:51:24;;;;;;;5.17;2.90;;;;;;;22.38;67.87;98772.66;5034247;28;20819;-61
2023/08/02 07:53:50;;;;;;;5.33;2.67;;;;;;;22.43;68.70;98758.56;5041173;28;20345;-61
2023/08/02 07:56:15;;;;;;;11.50;3.07;;;;;;;22.44;68.28;98770.88;5034581;28;20258;-62
2023/08/02 07:58:41;;;;;;;7.23;3.30;;;;;;;22.41;68.56;98761.09;5031606;28;20191;-60
2023/08/02 08:01:07;;;;;;;6.60;3.10;;;;;;;22.43;68.39;98769.28;5031743;28;20198;-61
2023/08/02 08:03:33;;;;;;;5.37;3.13;;;;;;;22.41;68.38;98766.84;5039731;28;20203;-62
2023/08/02 08:05:58;;;;;;;7.17;3.47;;;;;;;22.41;68.52;98766.84;5042473;28;20430;-62
2023/08/02 08:08:24;;;;;;;5.43;2.80;;;;;;;22.41;68.00;98774.63;5038487;28;20230;-61
2023/08/02 08:10:51;;;;;;;7.00;3.00;;;;;;;22.43;68.29;98778.69;5035577;28;20188;-61
2023/08/02 08:13:16;;;;;;;4.80;2.73;;;;;;;22.41;68.11;98775.47;5027234;28;20161;-62
2023/08/02 08:15:42;;;;;;;6.83;3.43;;;;;;;22.43;68.74;98777.91;5028784;28;20410;-62
2023/08/02 08:18:07;;;;;;;5.37;2.70;;;;;;;22.39;68.25;98766.47;5030446;28;20180;-62
2023/08/02 08:20:33;;;;;;;8.30;2.70;;;;;;;22.41;68.81;98772.59;5043936;28;20184;-62
2023/08/02 08:22:58;;;;;;;8.30;3.30;;;;;;;22.40;69.01;98768.09;5033396;28;20219;-62
2023/08/02 08:25:24;;;;;;;5.70;3.27;;;;;;;22.39;68.84;98760.72;5036698;28;20238;-61
2023/08/02 08:27:49;;;;;;;4.07;2.57;;;;;;;22.40;68.73;98750.84;5029985;28;20223;-61
2023/08/02 08:30:15;;;;;;;9.07;3.60;;;;;;;22.40;68.85;98758.66;5029407;28;20187;-62
2023/08/02 08:32:40;;;;;;;5.23;2.80;;;;;;;22.39;68.77;98743.47;5044910;28;20223;-62
2023/08/02 08:35:09;;;;;;;6.50;3.30;;;;;;;22.38;68.56;98744.72;5044573;28;20191;-62
2023/08/02 08:37:34;;;;;;;4.10;2.63;;;;;;;22.40;68.72;98745.09;5049250;28;20525;-62
2023/08/02 08:40:00;;;;;;;6.33;3.10;;;;;;;22.40;68.58;98724.13;5039574;28;20454;-62
2023/08/02 08:42:25;;;;;;;4.30;2.37;;;;;;;22.39;68.81;98726.22;5035307;28;20179;-61
2023/08/02 08:44:51;;;;;;;3.90;2.47;;;;;;;22.39;68.93;98731.97;5037316;28;20628;-61
2023/08/02 08:47:17;;;;;;;6.43;2.83;;;;;;;22.38;68.45;98727.44;5043354;28;20241;-62
2023/08/02 08:49:45;;;;;;;5.60;3.10;;;;;;;22.37;68.58;98725.84;5032858;28;20232;-62
2023/08/02 08:52:12;;;;;;;4.70;3.10;;;;;;;22.38;68.79;98715.94;5028006;28;20914;-62
2023/08/02 08:54:38;;;;;;;6.83;3.20;;;;;;;22.38;68.41;98718.81;5034781;28;20990;-61
2023/08/02 08:57:04;;;;;;;4.40;2.40;;;;;;;22.38;68.24;98713.06;5029975;28;20418;-62
2023/08/02 08:59:29;;;;;;;7.43;2.73;;;;;;;22.38;68.92;98713.06;5046229;28;20184;-62
2023/08/02 09:01:54;;;;;;;5.40;2.60;;;;;;;22.38;68.38;98715.94;5029226;28;20427;-62
2023/08/02 09:04:20;;;;;;;6.90;3.30;;;;;;;22.38;68.56;98715.94;5045944;28;20203;-61
2023/08/02 09:06:45;;;;;;;4.37;2.63;;;;;;;22.39;68.71;98719.66;5049832;28;20183;-61
2023/08/02 09:09:14;;;;;;;5.40;3.23;;;;;;;22.37;68.86;98711.47;5036386;28;20615;-62
2023/08/02 09:11:41;;;;;;;7.17;3.40;;;;;;;22.36;68.33;98703.28;5047809;28;20236;-62
2023/08/02 09:14:11;;;;;;;8.20;3.07;;;;;;;22.36;67.96;98720.53;5049845;28;20499;-61
2023/08/02 09:16:39;;;;;;;4.83;3.00;;;;;;;22.35;68.02;98711.09;5031507;28;20438;-61
2023/08/02 09:19:05;;;;;;;4.50;2.60;;;;;;;22.33;68.36;98710.72;5048620;28;20430;-63
2023/08/02 09:21:30;;;;;;;5.33;2.87;;;;;;;22.35;68.09;98727.53;5041913;28;20426;-61
2023/08/02 09:23:57;;;;;;;7.60;3.10;;;;;;;22.35;68.91;98721.78;5042678;28;20200;-61
2023/08/02 09:26:22;;;;;;;5.13;3.23;;;;;;;22.32;68.75;98714.06;5046216;28;20180;-61
2023/08/02 09:28:59;;;;;;;4.50;3.10;;;;;;;22.33;68.52;98716.47;5031660;28;20426;-61
2023/08/02 09:31:25;;;;;;;4.00;2.37;;;;;;;22.32;69.03;98709.09;5033400;28;20192;-62
2023/08/02 09:33:51;;;;;;;5.13;3.00;;;;;;;22.33;68.43;98707.06;5050082;28;20486;-62
2023/08/02 09:36:30;;;;;;;6.83;3.50;;;;;;;22.34;68.55;98697.16;5049672;28;20175;-61
2023/08/02 09:38:56;;;;;;;4.57;3.00;;;;;;;22.32;68.81;98694.72;5043233;28;20430;-62
2023/08/02 09:41:22;;;;;;;4.57;2.57;;;;;;;22.31;68.37;98690.25;5044785;28;20452;-62
2023/08/02 09:43:48;;;;;;;6.07;3.03;;;;;;;22.33;68.51;98690.59;5039250;28;20219;-62
2023/08/02 09:46:43;;;;;;;5.03;3.20;;;;;;;22.33;68.80;98675.44;5013331;28;20411;-61
2023/08/02 09:49:18;;;;;;;4.10;2.80;;;;;;;22.33;68.40;98681.97;5021800;28;20664;-62
2023/08/02 09:51:44;;;;;;;5.67;3.17;;;;;;;22.33;68.22;98673.34;5031263;28;20775;-61
2023/08/02 09:54:12;;;;;;;6.17;2.80;;;;;;;22.34;68.12;98671.28;5044117;28;20486;-62
2023/08/02 09:56:38;;;;;;;4.80;2.90;;;;;;;22.33;67.95;98667.59;5050782;28;20525;-62
2023/08/02 09:59:05;;;;;;;6.87;3.23;;;;;;;22.33;68.29;98652.44;5039612;28;20509;-61
2023/08/02 10:01:30;;;;;;;4.70;3.03;;;;;;;22.30;68.64;98648.38;5030531;28;20427;-61
2023/08/02 10:03:58;;;;;;;7.30;3.27;;;;;;;22.31;68.66;98650.00;5029029;28;20469;-62
2023/08/02 10:06:44;;;;;;;6.20;3.10;;;;;;;22.31;67.98;98647.13;5032105;28;20196;-62
2023/08/02 10:09:11;;;;;;;6.37;3.60;;;;;;;22.30;68.79;98647.56;5032098;28;20515;-61
2023/08/02 10:11:51;;;;;;;5.43;3.30;;;;;;;22.30;67.98;98639.75;5028419;28;20407;-61
2023/08/02 10:14:16;;;;;;;6.60;3.33;;;;;;;22.30;68.57;98624.56;5029752;28;20407;-61
2023/08/02 10:16:41;;;;;;;4.03;2.73;;;;;;;22.29;68.22;98629.50;5043365;28;21177;-61
2023/08/02 10:19:07;;;;;;;5.27;2.83;;;;;;;22.29;68.38;98615.13;5050502;28;20164;-62
2023/08/02 10:21:34;;;;;;;5.10;3.50;;;;;;;22.28;68.34;98610.63;5033280;28;20196;-61
2023/08/02 10:23:59;;;;;;;5.10;3.10;;;;;;;22.29;68.49;98609.38;5031345;28;20212;-62
2023/08/02 10:26:25;;;;;;;5.20;3.00;;;;;;;22.29;68.69;98603.63;5036449;28;20449;-61
2023/08/02 10:28:50;;;;;;;4.93;2.90;;;;;;;22.29;68.44;98597.88;5040653;28;20190;-62
2023/08/02 10:31:16;;;;;;;5.50;3.00;;;;;;;22.29;67.91;98595.00;5040998;28;20199;-61
2023/08/02 10:33:41;;;;;;;8.43;3.20;;;;;;;22.28;68.85;98599.13;5033057;28;20299;-61
2023/08/02 10:36:07;;;;;;;4.97;3.17;;;;;;;22.28;68.22;98587.63;5030362;28;20222;-61
2023/08/02 10:38:38;;;;;;;6.93;3.10;;;;;;;22.29;68.21;98591.31;5030281;28;20172;-61
2023/08/02 10:41:08;;;;;;;5.13;3.20;;;;;;;22.26;68.05;98587.25;5042205;28;20179;-61
2023/08/02 10:43:34;;;;;;;4.33;2.40;;;;;;;22.27;68.05;98583.13;5032465;28;20477;-61
2023/08/02 10:46:16;;;;;;;6.80;3.13;;;;;;;22.25;69.00;98568.41;5030191;28;20416;-61
2023/08/02 10:48:41;;;;;;;4.20;2.70;;;;;;;22.25;68.63;98562.66;5032260;28;20446;-62
2023/08/02 10:51:27;;;;;;;4.40;2.80;;;;;;;22.26;68.63;98569.19;5028646;28;20513;-62
2023/08/02 10:54:11;;;;;;;5.27;3.03;;;;;;;22.26;68.27;98570.00;5025655;28;20667;-62
2023/08/02 10:56:52;;;;;;;5.93;3.13;;;;;;;22.25;68.74;98562.66;5067854;28;20433;-61
2023/08/02 10:59:23;;;;;;;5.20;2.80;;;;;;;22.25;68.29;98556.09;5036062;28;20445;-61
2023/08/02 11:02:08;;;;;;;7.50;2.60;;;;;;;22.24;69.00;98566.78;5028891;28;20396;-62
2023/08/02 11:04:35;;;;;;;4.00;2.40;;;;;;;22.26;69.40;98558.50;5025587;28;20460;-62
2023/08/02 11:07:13;;;;;;;7.63;2.60;;;;;;;22.25;69.07;98542.53;5044857;28;20490;-61
2023/08/02 11:09:39;;;;;;;5.67;3.30;;;;;;;22.24;68.91;98540.91;5048950;28;20424;-62
2023/08/02 11:12:22;;;;;;;5.57;3.43;;;;;;;22.26;69.25;98547.00;5048458;28;20417;-62
2023/08/02 11:14:51;;;;;;;5.23;3.20;;;;;;;22.25;68.80;98550.34;5047272;28;20600;-61
2023/08/02 11:17:18;;;;;;;5.50;3.70;;;;;;;22.25;69.14;98545.41;5049343;28;20512;-61
2023/08/02 11:19:48;;;;;;;4.83;3.37;;;;;;;22.24;69.13;98538.03;5038776;28;21105;-61
2023/08/02 11:22:13;;;;;;;4.03;2.40;;;;;;;22.24;69.18;98532.28;5011792;28;21027;-62
2023/08/02 11:24:45;;;;;;;6.30;3.00;;;;;;;22.23;68.65;98533.53;5035266;28;20458;-61
2023/08/02 11:27:17;;;;;;;4.60;3.20;;;;;;;22.24;68.71;98542.97;5048282;28;20179;-62
2023/08/02 11:29:58;;;;;;;4.17;2.80;;;;;;;22.23;68.98;98524.91;5032462;28;20439;-61
2023/08/02 11:32:24;;;;;;;6.17;4.07;;;;;;;22.24;68.96;98531.47;5029136;28;20534;-63